createdAt,value
2018-01-13T00:00:13.536Z,38.47
2018-01-13T00:02:41.804Z,41.40
2018-01-13T00:05:11.276Z,36.60
2018-01-13T00:07:40.257Z,34.93
2018-01-13T00:10:09.301Z,37.47
2018-01-13T00:12:38.473Z,38.83
2018-01-13T00:15:06.722Z,37.57
2018-01-13T00:17:35.934Z,40.50
2018-01-13T00:20:04.601Z,40.70
2018-01-13T00:22:38.663Z,41.00
2018-01-13T00:25:06.914Z,40.07
2018-01-13T00:27:35.226Z,40.50
2018-01-13T00:30:03.682Z,41.10
2018-01-13T00:32:31.945Z,37.50
2018-01-13T00:35:01.002Z,36.80
2018-01-13T00:37:29.304Z,37.53
2018-01-13T00:39:57.576Z,37.57
2018-01-13T00:42:27.344Z,36.10
2018-01-13T00:44:55.624Z,37.93
2018-01-13T00:47:23.861Z,37.30
2018-01-13T00:49:52.919Z,38.10
2018-01-13T00:52:21.330Z,37.93
2018-01-13T00:54:49.609Z,35.73
2018-01-13T00:57:18.684Z,34.00
2018-01-13T00:59:46.930Z,34.33
2018-01-13T01:02:15.195Z,36.30
2018-01-13T01:04:43.467Z,34.17
2018-01-13T01:07:11.794Z,33.63
2018-01-13T01:09:40.123Z,33.23
2018-01-13T01:12:09.144Z,33.67
2018-01-13T01:14:37.405Z,34.70
2018-01-13T01:17:05.807Z,33.60
2018-01-13T01:19:34.106Z,31.60
2018-01-13T01:22:02.339Z,31.47
2018-01-13T01:24:30.619Z,32.40
2018-01-13T01:26:58.874Z,33.50
2018-01-13T01:29:27.198Z,31.77
2018-01-13T01:31:55.434Z,32.90
2018-01-13T01:34:23.703Z,32.20
2018-01-13T01:36:51.977Z,33.90
2018-01-13T01:39:20.271Z,31.73
2018-01-13T01:41:49.277Z,32.37
2018-01-13T01:44:18.127Z,31.80
2018-01-13T01:46:47.161Z,33.70
2018-01-13T01:49:15.745Z,33.43
2018-01-13T01:51:43.991Z,30.60
2018-01-13T01:54:12.234Z,32.73
2018-01-13T01:56:40.485Z,30.63
2018-01-13T01:59:08.793Z,32.70
2018-01-13T02:01:37.028Z,29.43
2018-01-13T02:04:05.286Z,27.90
2018-01-13T02:06:33.573Z,30.00
2018-01-13T02:09:01.797Z,29.53
2018-01-13T02:11:30.104Z,28.70
2018-01-13T02:13:58.361Z,30.50
2018-01-13T02:16:26.623Z,29.13
2018-01-13T02:18:54.883Z,29.60
2018-01-13T02:21:23.272Z,26.57
2018-01-13T02:23:51.525Z,27.30
2018-01-13T02:26:19.766Z,27.83
2018-01-13T02:28:48.788Z,26.70
2018-01-13T02:31:17.070Z,25.07
2018-01-13T02:33:45.313Z,25.47
2018-01-13T02:36:13.603Z,25.50
2018-01-13T02:38:42.645Z,23.50
2018-01-13T02:41:10.904Z,27.77
2018-01-13T02:43:39.233Z,26.00
2018-01-13T02:46:08.325Z,26.13
2018-01-13T02:48:36.583Z,26.33
2018-01-13T02:51:04.849Z,27.23
2018-01-13T02:53:33.128Z,25.53
2018-01-13T02:56:01.385Z,25.63
2018-01-13T02:58:29.660Z,26.50
2018-01-13T03:00:57.882Z,25.20
2018-01-13T03:03:27.660Z,25.70
2018-01-13T03:05:55.954Z,24.23
2018-01-13T03:08:24.191Z,24.10
2018-01-13T03:10:53.614Z,22.13
2018-01-13T03:13:21.873Z,23.80
2018-01-13T03:15:50.860Z,24.07
2018-01-13T03:18:19.899Z,24.00
2018-01-13T03:20:48.154Z,23.33
2018-01-13T03:23:16.452Z,24.00
2018-01-13T03:25:44.678Z,25.20
2018-01-13T03:28:13.772Z,25.03
2018-01-13T03:30:42.028Z,26.37
2018-01-13T03:33:10.292Z,24.97
2018-01-13T03:35:39.409Z,26.23
2018-01-13T03:38:08.431Z,23.97
2018-01-13T03:40:37.482Z,25.20
2018-01-13T03:43:05.711Z,25.53
2018-01-13T03:45:34.700Z,24.10
2018-01-13T03:48:03.722Z,25.40
2018-01-13T03:50:32.511Z,25.70
2018-01-13T03:53:00.742Z,22.07
2018-01-13T03:55:29.064Z,24.77
2018-01-13T03:57:57.285Z,24.67
2018-01-13T04:00:26.724Z,25.53
2018-01-13T04:02:55.025Z,24.40
2018-01-13T04:05:24.132Z,22.93
2018-01-13T04:07:52.788Z,24.70
2018-01-13T04:10:21.042Z,24.57
2018-01-13T04:12:49.570Z,26.50
2018-01-13T04:15:17.828Z,23.67
2018-01-13T04:17:46.094Z,25.57
2018-01-13T04:20:15.103Z,22.90
2018-01-13T04:22:44.080Z,24.20
2018-01-13T04:25:13.167Z,25.23
2018-01-13T04:27:42.294Z,26.70
2018-01-13T04:30:10.573Z,23.27
2018-01-13T04:32:38.851Z,25.93
2018-01-13T04:35:07.090Z,24.77
2018-01-13T04:37:36.108Z,23.80
2018-01-13T04:40:05.147Z,23.00
2018-01-13T04:42:33.423Z,25.40
2018-01-13T04:45:01.680Z,24.03
2018-01-13T04:47:30.392Z,23.77
2018-01-13T04:49:58.627Z,25.17
2018-01-13T04:52:26.890Z,23.17
2018-01-13T04:54:55.921Z,22.27
2018-01-13T04:57:24.180Z,23.63
2018-01-13T04:59:52.410Z,22.30
2018-01-13T05:02:22.162Z,23.17
2018-01-13T05:04:50.388Z,25.03
2018-01-13T05:07:18.639Z,23.10
2018-01-13T05:09:46.916Z,23.40
2018-01-13T05:12:15.169Z,24.10
2018-01-13T05:14:43.449Z,24.87
2018-01-13T05:17:12.023Z,23.00
2018-01-13T05:19:41.029Z,22.93
2018-01-13T05:22:09.311Z,22.53
2018-01-13T05:24:37.558Z,22.43
2018-01-13T05:27:06.577Z,23.17
2018-01-13T05:29:34.840Z,21.10
2018-01-13T05:32:04.869Z,23.10
2018-01-13T05:34:33.162Z,23.33
2018-01-13T05:37:01.392Z,23.80
2018-01-13T05:39:29.682Z,22.57
2018-01-13T05:41:57.954Z,21.80
2018-01-13T05:44:26.263Z,24.80
2018-01-13T05:46:54.473Z,24.10
2018-01-13T05:49:22.727Z,20.13
2018-01-13T05:51:50.949Z,19.73
2018-01-13T05:54:20.194Z,22.40
2018-01-13T05:56:48.450Z,22.00
2018-01-13T05:59:17.463Z,21.43
2018-01-13T06:01:45.813Z,20.63
2018-01-13T06:04:14.847Z,22.50
2018-01-13T06:06:43.102Z,21.30
2018-01-13T06:09:12.128Z,23.47
2018-01-13T06:11:40.366Z,23.37
2018-01-13T06:14:09.376Z,24.17
2018-01-13T06:16:37.626Z,21.03
2018-01-13T06:19:06.822Z,22.93
2018-01-13T06:21:35.050Z,24.20
2018-01-13T06:24:03.344Z,22.90
2018-01-13T06:26:32.030Z,22.33
2018-01-13T06:29:00.970Z,20.23
2018-01-13T06:31:29.237Z,23.63
2018-01-13T06:33:57.473Z,20.77
2018-01-13T06:36:25.747Z,22.77
2018-01-13T06:38:54.015Z,22.20
2018-01-13T06:41:22.258Z,21.87
2018-01-13T06:43:51.649Z,20.47
2018-01-13T06:46:19.907Z,23.10
2018-01-13T06:48:48.166Z,22.50
2018-01-13T06:51:16.435Z,22.07
2018-01-13T06:53:44.671Z,22.50
2018-01-13T06:56:13.693Z,20.87
2018-01-13T06:58:41.929Z,22.80
2018-01-13T07:01:10.957Z,23.57
2018-01-13T07:03:39.256Z,21.33
2018-01-13T07:06:07.946Z,22.37
2018-01-13T07:08:36.763Z,20.97
2018-01-13T07:11:05.018Z,21.70
2018-01-13T07:13:33.273Z,21.87
2018-01-13T07:16:01.546Z,23.03
2018-01-13T07:18:29.849Z,20.50
2018-01-13T07:20:58.127Z,18.20
2018-01-13T07:23:26.366Z,16.10
2018-01-13T07:25:55.403Z,15.00
2018-01-13T07:28:23.629Z,16.70
2018-01-13T07:30:52.700Z,15.03
2018-01-13T07:33:20.952Z,15.50
2018-01-13T07:35:49.216Z,13.70
2018-01-13T07:38:17.463Z,14.87
2018-01-13T07:40:46.457Z,13.80
2018-01-13T07:43:15.505Z,13.67
2018-01-13T07:45:43.822Z,14.40
2018-01-13T07:48:12.072Z,14.03
2018-01-13T07:50:40.314Z,13.93
2018-01-13T07:53:08.702Z,16.53
2018-01-13T07:55:37.066Z,16.13
2018-01-13T07:58:05.316Z,15.07
2018-01-13T08:00:34.359Z,14.60
2018-01-13T08:03:02.668Z,15.93
2018-01-13T08:05:30.932Z,15.13
2018-01-13T08:07:59.161Z,17.10
2018-01-13T08:10:27.430Z,14.37
2018-01-13T08:12:56.453Z,16.77
2018-01-13T08:15:24.746Z,17.70
2018-01-13T08:17:53.025Z,16.50
2018-01-13T08:20:21.296Z,17.40
2018-01-13T08:22:49.533Z,15.57
2018-01-13T08:25:18.537Z,18.83
2018-01-13T08:27:47.855Z,16.90
2018-01-13T08:30:16.092Z,15.53
2018-01-13T08:32:45.127Z,16.10
2018-01-13T08:35:13.411Z,17.50
2018-01-13T08:37:41.671Z,19.13
2018-01-13T08:40:09.929Z,17.57
2018-01-13T08:42:39.028Z,15.70
2018-01-13T08:45:07.698Z,14.70
2018-01-13T08:47:35.927Z,17.03
2018-01-13T08:50:04.218Z,15.60
2018-01-13T08:52:32.441Z,13.30
2018-01-13T08:55:02.475Z,16.43
2018-01-13T08:57:31.535Z,16.80
2018-01-13T09:00:01.305Z,15.27
2018-01-13T09:02:30.054Z,16.10
2018-01-13T09:04:59.075Z,15.97
2018-01-13T09:07:28.083Z,18.00
2018-01-13T09:09:56.352Z,16.20
2018-01-13T09:12:24.629Z,16.80
2018-01-13T09:14:52.882Z,19.30
2018-01-13T09:17:22.818Z,17.50
2018-01-13T09:19:51.788Z,17.83
2018-01-13T09:22:20.805Z,16.97
2018-01-13T09:24:49.083Z,16.97
2018-01-13T09:27:17.738Z,16.63
2018-01-13T09:29:46.081Z,14.33
2018-01-13T09:32:14.319Z,15.20
2018-01-13T09:34:42.567Z,11.53
2018-01-13T09:37:11.649Z,14.00
2018-01-13T09:39:39.898Z,15.27
2018-01-13T09:42:08.159Z,14.03
2018-01-13T09:44:36.414Z,14.00
2018-01-13T09:47:05.457Z,13.97
2018-01-13T09:49:33.715Z,13.63
2018-01-13T09:52:02.075Z,12.53
2018-01-13T09:54:31.854Z,15.70
2018-01-13T09:57:00.134Z,11.20
2018-01-13T09:59:28.443Z,12.30
2018-01-13T10:01:56.670Z,10.30
2018-01-13T10:04:25.002Z,19.60
2018-01-13T10:06:53.995Z,13.27
2018-01-13T10:09:23.021Z,11.40
2018-01-13T10:11:51.313Z,13.90
2018-01-13T10:14:19.605Z,11.70
2018-01-13T10:16:49.374Z,11.77
2018-01-13T10:19:17.616Z,10.37
2018-01-13T10:21:45.908Z,12.13
2018-01-13T10:24:15.046Z,12.40
2018-01-13T10:26:43.309Z,12.83
2018-01-13T10:29:12.379Z,12.70
2018-01-13T10:31:41.408Z,12.40
2018-01-13T10:34:09.682Z,9.97
2018-01-13T10:36:37.938Z,9.50
2018-01-13T10:39:06.264Z,10.43
2018-01-13T10:41:34.518Z,11.10
2018-01-13T10:44:02.795Z,10.27
2018-01-13T10:46:31.064Z,11.43
2018-01-13T10:48:59.344Z,12.40
2018-01-13T10:51:27.638Z,14.77
2018-01-13T10:53:55.964Z,10.30
2018-01-13T10:56:24.214Z,9.60
2018-01-13T10:58:52.523Z,9.90
2018-01-13T11:01:21.572Z,10.30
2018-01-13T11:03:49.824Z,9.63
2018-01-13T11:06:19.763Z,10.30
2018-01-13T11:08:47.992Z,11.17
2018-01-13T11:11:16.349Z,8.83
2018-01-13T11:13:44.615Z,9.20
2018-01-13T11:16:12.978Z,10.17
2018-01-13T11:18:41.253Z,9.67
2018-01-13T11:21:09.572Z,9.93
2018-01-13T11:23:37.816Z,8.93
2018-01-13T11:26:06.516Z,9.10
2018-01-13T11:28:34.852Z,9.07
2018-01-13T11:31:03.176Z,13.90
2018-01-13T11:33:31.431Z,10.60
2018-01-13T11:35:59.760Z,10.27
2018-01-13T11:38:28.773Z,10.77
2018-01-13T11:40:57.021Z,10.37
2018-01-13T11:43:26.529Z,9.80
2018-01-13T11:45:55.093Z,10.37
2018-01-13T11:48:23.396Z,9.00
2018-01-13T11:50:52.428Z,9.93
2018-01-13T11:53:20.690Z,10.33
2018-01-13T11:55:49.716Z,10.53
2018-01-13T11:58:18.001Z,8.60
2018-01-13T12:00:47.425Z,10.90
2018-01-13T12:03:16.726Z,10.50
2018-01-13T12:05:45.085Z,10.00
2018-01-13T12:08:13.330Z,11.47
2018-01-13T12:10:41.721Z,9.77
2018-01-13T12:13:09.993Z,10.43
2018-01-13T12:15:38.301Z,14.07
2018-01-13T12:18:06.556Z,12.47
2018-01-13T12:20:34.797Z,10.97
2018-01-13T12:23:03.114Z,11.20
2018-01-13T12:25:31.346Z,25.57
2018-01-13T12:28:00.415Z,30.00
2018-01-13T12:30:28.705Z,10.63
2018-01-13T12:32:56.949Z,12.10
2018-01-13T12:35:25.213Z,13.97
2018-01-13T12:37:53.499Z,11.43
2018-01-13T12:40:21.752Z,13.33
2018-01-13T12:42:50.010Z,11.27
2018-01-13T12:45:19.087Z,14.07
2018-01-13T12:47:47.363Z,12.17
2018-01-13T12:50:15.648Z,12.50
2018-01-13T12:52:44.024Z,11.87
2018-01-13T12:55:12.870Z,13.83
2018-01-13T12:57:41.413Z,12.30
2018-01-13T13:00:09.620Z,11.97
2018-01-13T13:02:37.890Z,10.80
2018-01-13T13:05:06.130Z,10.13
2018-01-13T13:07:35.143Z,11.60
2018-01-13T13:10:04.100Z,10.80
2018-01-13T13:12:32.397Z,11.83
2018-01-13T13:15:01.443Z,12.33
2018-01-13T13:17:30.067Z,10.77
2018-01-13T13:19:58.305Z,11.50
2018-01-13T13:22:26.615Z,24.13
2018-01-13T13:24:54.921Z,12.60
2018-01-13T13:27:23.182Z,11.50
2018-01-13T13:29:51.406Z,11.70
2018-01-13T13:32:19.708Z,11.63
2018-01-13T13:34:47.940Z,11.37
2018-01-13T13:37:17.195Z,12.63
2018-01-13T13:39:45.458Z,14.83
2018-01-13T13:42:13.780Z,12.67
2018-01-13T13:44:42.029Z,10.60
2018-01-13T13:47:10.317Z,12.20
2018-01-13T13:49:38.618Z,11.20
2018-01-13T13:52:07.654Z,12.87
2018-01-13T13:54:35.932Z,12.80
2018-01-13T13:57:04.216Z,10.67
2018-01-13T13:59:32.537Z,11.70
2018-01-13T14:02:00.781Z,13.60
2018-01-13T14:04:29.067Z,11.70
2018-01-13T14:06:57.290Z,12.17
2018-01-13T14:09:25.592Z,11.13
2018-01-13T14:11:54.927Z,12.03
2018-01-13T14:14:23.207Z,10.40
2018-01-13T14:16:51.832Z,11.37
2018-01-13T14:19:20.864Z,11.33
2018-01-13T14:21:49.147Z,12.80
2018-01-13T14:24:17.598Z,11.90
2018-01-13T14:26:46.627Z,13.90
2018-01-13T14:29:14.896Z,13.00
2018-01-13T14:31:43.167Z,14.97
2018-01-13T14:34:11.424Z,11.80
2018-01-13T14:36:41.252Z,10.77
2018-01-13T14:39:09.561Z,12.97
2018-01-13T14:41:37.802Z,12.73
2018-01-13T14:44:07.488Z,12.33
2018-01-13T14:46:35.842Z,12.97
2018-01-13T14:49:04.100Z,11.67
2018-01-13T14:51:32.390Z,11.43
2018-01-13T14:54:01.268Z,10.90
2018-01-13T14:56:29.559Z,11.20
2018-01-13T14:58:58.041Z,11.40
2018-01-13T15:01:26.334Z,10.27
2018-01-13T15:03:54.587Z,10.07
2018-01-13T15:06:22.892Z,11.40
2018-01-13T15:08:51.148Z,12.00
2018-01-13T15:11:21.097Z,12.77
2018-01-13T15:13:49.371Z,10.73
2018-01-13T15:16:17.677Z,9.97
2018-01-13T15:18:46.009Z,10.50
2018-01-13T15:21:14.286Z,10.93
2018-01-13T15:23:42.682Z,11.90
2018-01-13T15:26:10.981Z,13.67
2018-01-13T15:28:39.321Z,11.97
2018-01-13T15:31:07.623Z,11.37
2018-01-13T15:33:36.659Z,11.50
2018-01-13T15:36:04.957Z,14.03
2018-01-13T15:38:33.231Z,11.23
2018-01-13T15:41:01.568Z,12.40
2018-01-13T15:43:30.574Z,10.97
2018-01-13T15:45:58.919Z,11.83
2018-01-13T15:48:27.982Z,10.60
2018-01-13T15:50:57.601Z,9.53
2018-01-13T15:53:25.831Z,10.27
2018-01-13T15:55:54.133Z,11.27
2018-01-13T15:58:22.389Z,11.50
2018-01-13T16:00:50.719Z,12.40
2018-01-13T16:03:19.022Z,11.10
2018-01-13T16:05:48.124Z,11.30
2018-01-13T16:08:17.161Z,12.07
2018-01-13T16:10:45.460Z,11.10
2018-01-13T16:13:13.752Z,11.87
2018-01-13T16:15:42.057Z,13.80
2018-01-13T16:18:11.080Z,12.90
2018-01-13T16:20:39.412Z,12.47
2018-01-13T16:23:08.787Z,14.60
2018-01-13T16:25:38.582Z,12.23
2018-01-13T16:28:06.960Z,13.40
2018-01-13T16:30:35.208Z,14.30
2018-01-13T16:33:03.556Z,14.23
2018-01-13T16:35:31.812Z,16.70
2018-01-13T16:38:00.205Z,15.30
2018-01-13T16:40:28.480Z,15.37
2018-01-13T16:42:56.882Z,14.80
2018-01-13T16:45:25.960Z,14.10
2018-01-13T16:47:54.184Z,13.80
2018-01-13T16:50:22.504Z,16.17
2018-01-13T16:52:50.811Z,13.83
2018-01-13T16:55:19.105Z,15.23
2018-01-13T16:57:48.134Z,14.13
2018-01-13T17:00:16.443Z,16.13
2018-01-13T17:02:45.503Z,17.50
2018-01-13T17:05:15.550Z,15.90
2018-01-13T17:07:43.860Z,14.43
2018-01-13T17:10:12.892Z,16.77
2018-01-13T17:12:42.100Z,15.20
2018-01-13T17:15:10.404Z,16.37
2018-01-13T17:17:38.689Z,17.43
2018-01-13T17:20:07.107Z,15.30
2018-01-13T17:22:35.403Z,18.03
2018-01-13T17:25:03.688Z,20.20
2018-01-13T17:27:31.950Z,16.07
2018-01-13T17:30:00.230Z,17.30
2018-01-13T17:32:28.523Z,16.23
2018-01-13T17:35:06.753Z,16.13
2018-01-13T17:37:35.032Z,15.57
2018-01-13T17:40:03.324Z,17.67
2018-01-13T17:42:31.574Z,15.73
2018-01-13T17:44:59.866Z,16.87
2018-01-13T17:47:28.164Z,16.80
2018-01-13T17:49:58.254Z,18.57
2018-01-13T17:52:26.563Z,17.00
2018-01-13T17:54:54.825Z,15.70
2018-01-13T17:57:23.099Z,13.90
2018-01-13T17:59:53.230Z,15.60
2018-01-13T18:02:21.514Z,16.70
2018-01-13T18:04:51.289Z,16.90
2018-01-13T18:07:19.591Z,15.33
2018-01-13T18:09:47.926Z,17.00
2018-01-13T18:12:16.210Z,15.93
2018-01-13T18:14:44.625Z,16.70
2018-01-13T18:17:12.881Z,15.90
2018-01-13T18:19:41.163Z,16.03
2018-01-13T18:22:09.428Z,16.23
2018-01-13T18:24:38.570Z,17.03
2018-01-13T18:27:06.826Z,15.57
2018-01-13T18:29:35.089Z,17.13
2018-01-13T18:32:03.383Z,17.07
2018-01-13T18:34:31.661Z,17.77
2018-01-13T18:36:59.914Z,17.30
2018-01-13T18:39:28.275Z,18.03
2018-01-13T18:41:57.289Z,18.73
2018-01-13T18:44:25.557Z,16.97
2018-01-13T18:46:53.873Z,16.80
2018-01-13T18:49:22.112Z,18.23
2018-01-13T18:51:50.422Z,18.83
2018-01-13T18:54:18.716Z,20.70
2018-01-13T18:56:46.962Z,18.23
2018-01-13T18:59:16.136Z,18.47
2018-01-13T19:01:44.485Z,18.63
2018-01-13T19:04:13.513Z,18.60
2018-01-13T19:06:41.788Z,18.17
2018-01-13T19:09:10.042Z,19.23
2018-01-13T19:11:39.430Z,19.90
2018-01-13T19:14:08.463Z,18.50
2018-01-13T19:16:37.505Z,17.90
2018-01-13T19:19:05.756Z,20.30
2018-01-13T19:21:34.911Z,19.47
2018-01-13T19:24:04.000Z,21.17
2018-01-13T19:26:33.417Z,21.80
2018-01-13T19:29:01.736Z,20.17
2018-01-13T19:31:29.987Z,21.30
2018-01-13T19:33:58.314Z,21.50
2018-01-13T19:36:26.568Z,20.87
2018-01-13T19:38:54.917Z,19.30
2018-01-13T19:41:23.185Z,19.77
2018-01-13T19:43:51.435Z,22.50
2018-01-13T19:46:19.761Z,22.17
2018-01-13T19:48:48.834Z,22.57
2018-01-13T19:51:17.912Z,21.97
2018-01-13T19:53:47.118Z,22.77
2018-01-13T19:56:15.543Z,22.10
2018-01-13T19:58:44.677Z,24.03
2018-01-13T20:01:13.025Z,22.50
2018-01-13T20:03:41.447Z,23.80
2018-01-13T20:06:09.736Z,23.20
2018-01-13T20:08:38.927Z,27.50
2018-01-13T20:11:07.215Z,23.20
2018-01-13T20:13:36.227Z,25.07
2018-01-13T20:16:04.998Z,34.70
2018-01-13T20:18:34.042Z,26.03
2018-01-13T20:21:03.084Z,25.17
2018-01-13T20:23:32.183Z,24.10
2018-01-13T20:26:00.461Z,21.77
2018-01-13T20:28:29.479Z,22.90
2018-01-13T20:30:58.186Z,23.47
2018-01-13T20:33:26.430Z,22.97
2018-01-13T20:35:55.461Z,21.97
2018-01-13T20:38:23.874Z,22.50
2018-01-13T20:40:53.555Z,20.33
2018-01-13T20:43:21.824Z,21.83
2018-01-13T20:45:51.082Z,22.63
2018-01-13T20:48:19.382Z,23.43
2018-01-13T20:50:49.302Z,22.17
2018-01-13T20:53:17.756Z,22.90
2018-01-13T20:55:46.801Z,23.80
2018-01-13T20:58:15.501Z,20.97
2018-01-13T21:00:44.042Z,21.33
2018-01-13T21:03:12.536Z,19.90
2018-01-13T21:05:40.835Z,19.70
2018-01-13T21:08:09.111Z,19.43
2018-01-13T21:10:38.762Z,21.00
2018-01-13T21:13:07.252Z,21.40
2018-01-13T21:15:35.780Z,22.47
2018-01-13T21:18:04.089Z,21.40
2018-01-13T21:20:33.973Z,20.83
2018-01-13T21:23:02.405Z,18.73
2018-01-13T21:25:31.020Z,20.07
2018-01-13T21:28:00.615Z,18.27
2018-01-13T21:30:30.033Z,21.20
2018-01-13T21:32:59.114Z,17.67
2018-01-13T21:35:28.791Z,20.50
2018-01-13T21:37:57.078Z,19.70
2018-01-13T21:40:26.845Z,21.93
2018-01-13T21:42:55.256Z,19.30
2018-01-13T21:45:24.167Z,20.60
2018-01-13T21:47:52.417Z,18.83
2018-01-13T21:50:20.740Z,20.63
2018-01-13T21:52:49.524Z,20.20
2018-01-13T21:55:17.811Z,18.10
2018-01-13T21:57:46.147Z,19.30
2018-01-13T22:00:14.405Z,20.27
2018-01-13T22:02:42.699Z,19.40
2018-01-13T22:05:11.005Z,19.97
2018-01-13T22:07:39.819Z,19.20
2018-01-13T22:10:08.117Z,18.30
2018-01-13T22:12:37.075Z,18.60
2018-01-13T22:15:06.800Z,18.87
2018-01-13T22:17:35.999Z,18.57
2018-01-13T22:20:05.727Z,19.30
2018-01-13T22:22:34.251Z,17.40
2018-01-13T22:25:02.529Z,18.37
2018-01-13T22:27:30.858Z,18.37
2018-01-13T22:29:59.134Z,18.57
2018-01-13T22:32:28.163Z,19.53
2018-01-13T22:34:56.408Z,18.90
2018-01-13T22:37:25.644Z,22.20
2018-01-13T22:39:53.932Z,19.43
2018-01-13T22:42:23.224Z,16.73
2018-01-13T22:44:51.457Z,18.70
2018-01-13T22:47:20.506Z,17.47
2018-01-13T22:49:48.788Z,19.90
2018-01-13T22:52:17.151Z,20.17
2018-01-13T22:54:45.464Z,18.90
2018-01-13T22:57:13.777Z,19.53
2018-01-13T22:59:42.770Z,22.43
2018-01-13T23:02:11.796Z,20.50
2018-01-13T23:04:40.076Z,18.93
2018-01-13T23:07:08.351Z,19.40
2018-01-13T23:09:36.613Z,18.07
2018-01-13T23:12:04.870Z,20.23
2018-01-13T23:14:34.048Z,18.90
2018-01-13T23:17:02.389Z,19.80
2018-01-13T23:19:30.662Z,21.07
2018-01-13T23:21:58.958Z,21.30
2018-01-13T23:24:27.453Z,19.80
2018-01-13T23:26:57.290Z,20.57
2018-01-13T23:29:26.390Z,21.97
2018-01-13T23:31:55.467Z,21.37
2018-01-13T23:34:24.011Z,20.77
2018-01-13T23:36:52.342Z,18.90
2018-01-13T23:39:21.381Z,19.37
2018-01-13T23:41:49.653Z,21.87
2018-01-13T23:44:17.944Z,27.30
2018-01-13T23:46:46.188Z,21.67
2018-01-13T23:49:15.231Z,20.33
2018-01-13T23:51:43.491Z,19.43
2018-01-13T23:54:11.740Z,20.10
2018-01-13T23:56:40.745Z,19.27
2018-01-13T23:59:09.028Z,21.30
